メインページ
METAR-TAF:

METAR-TAF

空港 :

ポルト・アレグレ, リオグランデ・ド・スル州, ブラジル

サルガド・フィーリョ国際空港

緯度: 30-00S, 経度: 051-11W, 海抜: 3m

現時点の気象観測

当レポートは18分前の06:00(UTC)に作成
の風 6kt
気温 19°C
湿度 88%
気圧 1018 hPa
視程10km以上
1,500メートル以下は雲なし、積乱雲なし

METAR: SBPA 280600Z 09006KT CAVOK 19/17 Q1018

時間: 03:18 (06:18 UTC)

予報

当レポートは3時間18分前の03:00(UTC)に作成
予報は28日の 06時(UTC)から 29日の 06時(UTC)まで有効
の風 6kt
視程10km以上
1,500メートル以下は雲なし、積乱雲なし
確率 40%
28日の 08時(UTC)から 28日の 10時(UTC)まで
視程: 3000m
高度500ftの千切れ雲あり
28日の 10時(UTC)から 28日の 12時(UTC)まで徐々に
視程10km以上
高度2000ftの雲は散在している
28日の 12時(UTC)から 28日の 14時(UTC)まで徐々に
の風 12kt
高度3000ftの雲は散在している
28日の 22時(UTC)から 28日の 24時(UTC)まで徐々に
の風 5kt
視程10km以上
1,500メートル以下は雲なし、積乱雲なし

TAF: SBPA 280300Z 2806/2906 10006KT CAVOK TN20/2808Z TX29/2818Z PROB40 2808/2810 3000 BR BKN005 BECMG 2810/2812 9999 SCT020 BECMG 2812/2814 10012KT SCT030 BECMG 2822/2824 10005KT CAVOK RMK PDJ

4,000以上の空港の気象観測と天気予報(METAR報とTAF報)

利用可能な観測所は地図上に黄色い丸と赤い丸で示す。

丸の上にカーソルを重ねると観測所名を参照できる。

次にクリックすると気象観測と天気予報を参照できる。

マップの切り替え:黒色「×」印の緑ボタンをクリックして拡大、「-」印の緑ボタンをクリックして縮小、緑色の三角印をクリックして隣りの地図に切り替え


METAR-TAF: